Aka, Japan

12:15 PM JST on January 17, 2017 (GMT +0900)
Naha | | Change Station

Elev 26 ft 26.18 °N, 127.65 °E | Updated 15 minutes ago

Mostly Cloudy
Mostly Cloudy
66 °F
Feels Like 66 °F
N
6
Wind Variable Wind from ENE

Today
High -- | Low -- °F
--% Chance of Precip.
Yesterday
High -- | Low -- °F
Precip. -- in
Pressure 30.24 in
Visibility 6.2 miles
Clouds Few 4000 ft
Scattered Clouds 6000 ft
Mostly Cloudy 8000 ft
Dew Point 46 °F
Humidity 49%
Rainfall 0.00 in
Snow Depth Not available.
7:18 AM 6:00 PM
Waning Gibbous, 76% visible
METAR ROAH 170300Z 06005KT 020V120 9999 FEW040 SCT060 BKN080 19/08 Q1024 RMK 1SC040 3SC060 6AC080 A3025 MOD TURB OBS AT 0235Z 25NM SW NHC BTN 12000FT AND 16000FT B734
Pressure 30.24 in
Visibility 6.2 miles
Clouds Few 4000 ft
Scattered Clouds 6000 ft
Mostly Cloudy 8000 ft
Dew Point 46 °F
Humidity 49%
Rainfall 0.00 in
Snow Depth Not available.
7:18 AM 6:00 PM
Waning Gibbous, 76% visible
METAR ROAH 170300Z 06005KT 020V120 9999 FEW040 SCT060 BKN080 19/08 Q1024 RMK 1SC040 3SC060 6AC080 A3025 MOD TURB OBS AT 0235Z 25NM SW NHC BTN 12000FT AND 16000FT B734

Get Your Daily Forecast Email!

Thanks for signing up!

Be on the lookout for a verification email in your inbox.

You'll start receiving the daily forecast at 8 AM.

×

10-Day Weather Forecast

No radar image for this location.
×

Almanac

Astronomy

Jan. 17, 2017 Rise Set
Actual Time
Civil Twilight
Nautical Twilight
Astronomical Twilight
Moon
Length of Visible Light
Length of Day
Tomorrow will be .
, % of the Moon is Illuminated

Today's Extremes

Country Highs Country Lows

Community

WunderPhotos

Upload Photos

1,962,540 photos uploaded!

WunderBlog® & News

Nearby

Air Quality

  Air Quality AQ Index Pollutant
Not available.

Snow Depth

Station Depth Elevation

Earthquake Activity

City Distance Mag. Time & Date
Minimum magnitude displayed is 2.5.

Coastal Water Temperatures

Place Temperature

Stations

Nearby Weather Stations

Station Location Temp. Windchill Dew Point Humidity Wind Precip. Elev Updated Type